sensor_id;sensor_type;location;lat;lon;timestamp;P1;durP1;ratioP1;P2;durP2;ratioP2
49842;SDS011;55559;48.898;9.184;2022-08-01T00:02:06;3.10;;;0.40;;
49842;SDS011;55559;48.898;9.184;2022-08-01T00:04:34;1.40;;;0.45;;
49842;SDS011;55559;48.898;9.184;2022-08-01T00:07:01;1.00;;;0.43;;
49842;SDS011;55559;48.898;9.184;2022-08-01T00:09:29;1.55;;;0.50;;
49842;SDS011;55559;48.898;9.184;2022-08-01T00:11:57;1.50;;;0.40;;
49842;SDS011;55559;48.898;9.184;2022-08-01T00:14:24;0.65;;;0.32;;
49842;SDS011;55559;48.898;9.184;2022-08-01T00:16:52;2.25;;;0.52;;
49842;SDS011;55559;48.898;9.184;2022-08-01T00:19:20;1.10;;;0.50;;
49842;SDS011;55559;48.898;9.184;2022-08-01T00:21:48;2.55;;;0.32;;
49842;SDS011;55559;48.898;9.184;2022-08-01T00:24:15;3.05;;;0.82;;
49842;SDS011;55559;48.898;9.184;2022-08-01T00:26:43;0.90;;;0.40;;
49842;SDS011;55559;48.898;9.184;2022-08-01T00:29:10;3.13;;;0.45;;
49842;SDS011;55559;48.898;9.184;2022-08-01T00:31:38;3.78;;;0.50;;
49842;SDS011;55559;48.898;9.184;2022-08-01T00:34:05;1.63;;;0.50;;
49842;SDS011;55559;48.898;9.184;2022-08-01T00:36:34;1.33;;;0.50;;
49842;SDS011;55559;48.898;9.184;2022-08-01T00:39:02;4.18;;;0.60;;
49842;SDS011;55559;48.898;9.184;2022-08-01T00:41:29;3.03;;;0.43;;
49842;SDS011;55559;48.898;9.184;2022-08-01T00:43:57;1.00;;;0.40;;
49842;SDS011;55559;48.898;9.184;2022-08-01T00:46:24;5.05;;;0.40;;
49842;SDS011;55559;48.898;9.184;2022-08-01T00:48:52;3.30;;;0.60;;
49842;SDS011;55559;48.898;9.184;2022-08-01T00:51:20;1.98;;;0.40;;
49842;SDS011;55559;48.898;9.184;2022-08-01T00:53:50;1.10;;;0.50;;
49842;SDS011;55559;48.898;9.184;2022-08-01T00:56:18;1.77;;;0.43;;
49842;SDS011;55559;48.898;9.184;2022-08-01T00:58:46;7.65;;;0.60;;
49842;SDS011;55559;48.898;9.184;2022-08-01T01:01:14;1.23;;;0.50;;
49842;SDS011;55559;48.898;9.184;2022-08-01T01:03:41;8.48;;;0.40;;
49842;SDS011;55559;48.898;9.184;2022-08-01T01:06:12;1.13;;;0.40;;
49842;SDS011;55559;48.898;9.184;2022-08-01T01:08:48;0.95;;;0.47;;
49842;SDS011;55559;48.898;9.184;2022-08-01T01:11:43;3.67;;;0.50;;
49842;SDS011;55559;48.898;9.184;2022-08-01T01:14:18;8.70;;;0.65;;
49842;SDS011;55559;48.898;9.184;2022-08-01T01:16:54;4.53;;;0.45;;
49842;SDS011;55559;48.898;9.184;2022-08-01T01:19:24;1.95;;;0.40;;
49842;SDS011;55559;48.898;9.184;2022-08-01T01:22:05;3.10;;;0.50;;
49842;SDS011;55559;48.898;9.184;2022-08-01T01:24:45;1.67;;;0.50;;
49842;SDS011;55559;48.898;9.184;2022-08-01T01:27:29;1.13;;;0.40;;
49842;SDS011;55559;48.898;9.184;2022-08-01T01:30:07;2.53;;;0.50;;
49842;SDS011;55559;48.898;9.184;2022-08-01T01:32:36;1.67;;;0.60;;
49842;SDS011;55559;48.898;9.184;2022-08-01T01:35:10;1.92;;;0.40;;
49842;SDS011;55559;48.898;9.184;2022-08-01T01:37:42;1.75;;;0.50;;
49842;SDS011;55559;48.898;9.184;2022-08-01T01:40:11;2.22;;;0.40;;
49842;SDS011;55559;48.898;9.184;2022-08-01T01:42:40;1.38;;;0.45;;
49842;SDS011;55559;48.898;9.184;2022-08-01T01:45:10;1.42;;;0.50;;
49842;SDS011;55559;48.898;9.184;2022-08-01T01:47:39;1.73;;;0.50;;
49842;SDS011;55559;48.898;9.184;2022-08-01T01:50:09;2.80;;;0.50;;
49842;SDS011;55559;48.898;9.184;2022-08-01T01:52:39;3.67;;;0.43;;
49842;SDS011;55559;48.898;9.184;2022-08-01T01:55:09;1.35;;;0.45;;
49842;SDS011;55559;48.898;9.184;2022-08-01T01:57:39;1.48;;;0.40;;
49842;SDS011;55559;48.898;9.184;2022-08-01T02:00:10;6.45;;;0.45;;
49842;SDS011;55559;48.898;9.184;2022-08-01T02:02:39;3.03;;;0.50;;
49842;SDS011;55559;48.898;9.184;2022-08-01T02:05:08;1.48;;;0.80;;
49842;SDS011;55559;48.898;9.184;2022-08-01T02:07:38;2.13;;;0.40;;
49842;SDS011;55559;48.898;9.184;2022-08-01T02:10:06;1.38;;;0.50;;
49842;SDS011;55559;48.898;9.184;2022-08-01T02:12:35;3.58;;;0.68;;
49842;SDS011;55559;48.898;9.184;2022-08-01T02:15:06;0.73;;;0.47;;
49842;SDS011;55559;48.898;9.184;2022-08-01T02:17:37;3.25;;;0.50;;
49842;SDS011;55559;48.898;9.184;2022-08-01T02:20:09;1.65;;;0.45;;
49842;SDS011;55559;48.898;9.184;2022-08-01T02:22:40;3.05;;;0.47;;
49842;SDS011;55559;48.898;9.184;2022-08-01T02:25:20;0.93;;;0.50;;
49842;SDS011;55559;48.898;9.184;2022-08-01T02:27:52;1.67;;;0.70;;
49842;SDS011;55559;48.898;9.184;2022-08-01T02:30:26;1.05;;;0.40;;
49842;SDS011;55559;48.898;9.184;2022-08-01T02:35:30;1.27;;;0.50;;
49842;SDS011;55559;48.898;9.184;2022-08-01T02:38:01;0.73;;;0.40;;
49842;SDS011;55559;48.898;9.184;2022-08-01T02:40:31;1.85;;;0.60;;
49842;SDS011;55559;48.898;9.184;2022-08-01T02:43:01;2.80;;;0.60;;
49842;SDS011;55559;48.898;9.184;2022-08-01T02:45:30;0.85;;;0.50;;
49842;SDS011;55559;48.898;9.184;2022-08-01T02:48:03;1.45;;;0.60;;
49842;SDS011;55559;48.898;9.184;2022-08-01T02:50:42;2.70;;;0.60;;
49842;SDS011;55559;48.898;9.184;2022-08-01T02:53:11;0.82;;;0.50;;
49842;SDS011;55559;48.898;9.184;2022-08-01T02:55:40;1.55;;;0.60;;
49842;SDS011;55559;48.898;9.184;2022-08-01T02:58:12;3.53;;;0.50;;
49842;SDS011;55559;48.898;9.184;2022-08-01T03:00:43;2.58;;;0.55;;
49842;SDS011;55559;48.898;9.184;2022-08-01T03:03:14;1.50;;;0.50;;
49842;SDS011;55559;48.898;9.184;2022-08-01T03:05:43;2.03;;;0.50;;
49842;SDS011;55559;48.898;9.184;2022-08-01T03:08:12;4.40;;;0.50;;
49842;SDS011;55559;48.898;9.184;2022-08-01T03:10:42;5.05;;;0.50;;
49842;SDS011;55559;48.898;9.184;2022-08-01T03:13:12;1.95;;;0.50;;
49842;SDS011;55559;48.898;9.184;2022-08-01T03:15:43;1.77;;;0.43;;
49842;SDS011;55559;48.898;9.184;2022-08-01T03:18:11;4.30;;;0.50;;
49842;SDS011;55559;48.898;9.184;2022-08-01T03:20:42;1.05;;;0.63;;
49842;SDS011;55559;48.898;9.184;2022-08-01T03:23:11;3.30;;;0.50;;
49842;SDS011;55559;48.898;9.184;2022-08-01T03:25:40;5.07;;;0.70;;
49842;SDS011;55559;48.898;9.184;2022-08-01T03:28:12;0.77;;;0.40;;
49842;SDS011;55559;48.898;9.184;2022-08-01T03:30:40;4.35;;;0.90;;
49842;SDS011;55559;48.898;9.184;2022-08-01T03:33:10;0.85;;;0.40;;
49842;SDS011;55559;48.898;9.184;2022-08-01T03:35:39;1.50;;;0.50;;
49842;SDS011;55559;48.898;9.184;2022-08-01T03:38:13;2.65;;;0.50;;
49842;SDS011;55559;48.898;9.184;2022-08-01T03:43:18;1.45;;;0.50;;
49842;SDS011;55559;48.898;9.184;2022-08-01T03:45:49;1.05;;;0.50;;
49842;SDS011;55559;48.898;9.184;2022-08-01T03:48:24;6.82;;;0.73;;
49842;SDS011;55559;48.898;9.184;2022-08-01T03:50:56;1.90;;;0.50;;
49842;SDS011;55559;48.898;9.184;2022-08-01T03:53:27;3.95;;;0.50;;
49842;SDS011;55559;48.898;9.184;2022-08-01T03:55:57;1.38;;;0.60;;
49842;SDS011;55559;48.898;9.184;2022-08-01T03:58:27;4.70;;;0.73;;
49842;SDS011;55559;48.898;9.184;2022-08-01T04:00:55;5.57;;;0.70;;
49842;SDS011;55559;48.898;9.184;2022-08-01T04:03:24;2.22;;;0.50;;
49842;SDS011;55559;48.898;9.184;2022-08-01T04:05:52;2.42;;;0.50;;
49842;SDS011;55559;48.898;9.184;2022-08-01T04:08:21;3.08;;;0.60;;
49842;SDS011;55559;48.898;9.184;2022-08-01T04:10:48;1.98;;;0.70;;
49842;SDS011;55559;48.898;9.184;2022-08-01T04:13:15;2.67;;;0.50;;
49842;SDS011;55559;48.898;9.184;2022-08-01T04:15:43;4.63;;;0.88;;
49842;SDS011;55559;48.898;9.184;2022-08-01T04:18:10;3.22;;;0.60;;
49842;SDS011;55559;48.898;9.184;2022-08-01T04:20:37;3.55;;;0.50;;
49842;SDS011;55559;48.898;9.184;2022-08-01T04:23:05;2.40;;;0.52;;
49842;SDS011;55559;48.898;9.184;2022-08-01T04:25:35;1.83;;;0.50;;
49842;SDS011;55559;48.898;9.184;2022-08-01T04:28:05;2.00;;;0.43;;
49842;SDS011;55559;48.898;9.184;2022-08-01T04:30:36;1.50;;;0.50;;
49842;SDS011;55559;48.898;9.184;2022-08-01T04:33:06;1.10;;;0.50;;
49842;SDS011;55559;48.898;9.184;2022-08-01T04:35:36;2.80;;;0.50;;
49842;SDS011;55559;48.898;9.184;2022-08-01T04:38:06;2.53;;;0.50;;
49842;SDS011;55559;48.898;9.184;2022-08-01T04:40:37;1.67;;;0.50;;
49842;SDS011;55559;48.898;9.184;2022-08-01T04:43:05;1.33;;;0.50;;
49842;SDS011;55559;48.898;9.184;2022-08-01T04:45:33;3.40;;;0.55;;
49842;SDS011;55559;48.898;9.184;2022-08-01T04:48:02;1.17;;;0.43;;
49842;SDS011;55559;48.898;9.184;2022-08-01T04:50:33;3.58;;;0.45;;
49842;SDS011;55559;48.898;9.184;2022-08-01T04:53:01;3.28;;;0.50;;
49842;SDS011;55559;48.898;9.184;2022-08-01T04:55:29;3.42;;;0.50;;
49842;SDS011;55559;48.898;9.184;2022-08-01T04:57:58;2.33;;;0.50;;
49842;SDS011;55559;48.898;9.184;2022-08-01T05:00:25;0.90;;;0.45;;
49842;SDS011;55559;48.898;9.184;2022-08-01T05:02:53;2.60;;;0.50;;
49842;SDS011;55559;48.898;9.184;2022-08-01T05:05:21;1.08;;;0.30;;
49842;SDS011;55559;48.898;9.184;2022-08-01T05:07:48;2.58;;;0.52;;
49842;SDS011;55559;48.898;9.184;2022-08-01T05:10:16;3.80;;;0.50;;
49842;SDS011;55559;48.898;9.184;2022-08-01T05:12:43;8.80;;;0.50;;
49842;SDS011;55559;48.898;9.184;2022-08-01T05:15:13;1.88;;;0.50;;
49842;SDS011;55559;48.898;9.184;2022-08-01T05:17:41;3.95;;;0.40;;
49842;SDS011;55559;48.898;9.184;2022-08-01T05:20:10;4.28;;;0.50;;
49842;SDS011;55559;48.898;9.184;2022-08-01T05:22:38;4.78;;;0.43;;
49842;SDS011;55559;48.898;9.184;2022-08-01T05:25:06;2.97;;;0.90;;
49842;SDS011;55559;48.898;9.184;2022-08-01T05:27:34;5.90;;;0.73;;
49842;SDS011;55559;48.898;9.184;2022-08-01T05:30:05;6.22;;;0.40;;
49842;SDS011;55559;48.898;9.184;2022-08-01T05:32:35;2.75;;;0.40;;
49842;SDS011;55559;48.898;9.184;2022-08-01T05:35:03;3.85;;;0.40;;
49842;SDS011;55559;48.898;9.184;2022-08-01T05:37:31;1.00;;;0.30;;
49842;SDS011;55559;48.898;9.184;2022-08-01T05:39:59;4.47;;;0.70;;
49842;SDS011;55559;48.898;9.184;2022-08-01T05:42:26;0.85;;;0.30;;
49842;SDS011;55559;48.898;9.184;2022-08-01T05:44:53;7.63;;;0.55;;
49842;SDS011;55559;48.898;9.184;2022-08-01T05:47:21;1.83;;;0.30;;
49842;SDS011;55559;48.898;9.184;2022-08-01T05:49:50;10.75;;;0.30;;
49842;SDS011;55559;48.898;9.184;2022-08-01T05:52:17;1.65;;;0.40;;
49842;SDS011;55559;48.898;9.184;2022-08-01T05:54:45;1.52;;;0.30;;
49842;SDS011;55559;48.898;9.184;2022-08-01T05:57:12;1.52;;;0.30;;
49842;SDS011;55559;48.898;9.184;2022-08-01T05:59:40;9.07;;;0.47;;
49842;SDS011;55559;48.898;9.184;2022-08-01T06:02:07;1.90;;;0.50;;
49842;SDS011;55559;48.898;9.184;2022-08-01T06:04:34;8.07;;;0.30;;
49842;SDS011;55559;48.898;9.184;2022-08-01T06:07:03;3.70;;;0.32;;
49842;SDS011;55559;48.898;9.184;2022-08-01T06:09:31;4.97;;;0.30;;
49842;SDS011;55559;48.898;9.184;2022-08-01T06:11:58;5.55;;;0.50;;
49842;SDS011;55559;48.898;9.184;2022-08-01T06:14:26;3.33;;;0.40;;
49842;SDS011;55559;48.898;9.184;2022-08-01T06:16:53;2.17;;;0.30;;
49842;SDS011;55559;48.898;9.184;2022-08-01T06:19:21;2.40;;;0.32;;
49842;SDS011;55559;48.898;9.184;2022-08-01T06:21:48;1.33;;;0.38;;
49842;SDS011;55559;48.898;9.184;2022-08-01T06:24:17;0.75;;;0.30;;
49842;SDS011;55559;48.898;9.184;2022-08-01T06:26:44;3.22;;;0.20;;
49842;SDS011;55559;48.898;9.184;2022-08-01T06:29:11;3.45;;;0.30;;
49842;SDS011;55559;48.898;9.184;2022-08-01T06:31:39;2.00;;;0.40;;
49842;SDS011;55559;48.898;9.184;2022-08-01T06:34:07;1.70;;;0.20;;
49842;SDS011;55559;48.898;9.184;2022-08-01T06:36:34;1.35;;;0.20;;
49842;SDS011;55559;48.898;9.184;2022-08-01T06:39:01;3.28;;;0.20;;
49842;SDS011;55559;48.898;9.184;2022-08-01T06:41:30;4.72;;;0.28;;
49842;SDS011;55559;48.898;9.184;2022-08-01T06:43:59;4.20;;;0.43;;
49842;SDS011;55559;48.898;9.184;2022-08-01T06:46:29;1.48;;;0.28;;
49842;SDS011;55559;48.898;9.184;2022-08-01T06:48:56;2.45;;;0.30;;
49842;SDS011;55559;48.898;9.184;2022-08-01T06:51:24;1.10;;;0.20;;
49842;SDS011;55559;48.898;9.184;2022-08-01T06:53:51;1.33;;;0.22;;
49842;SDS011;55559;48.898;9.184;2022-08-01T06:56:19;1.30;;;0.20;;
49842;SDS011;55559;48.898;9.184;2022-08-01T06:58:48;0.45;;;0.20;;
49842;SDS011;55559;48.898;9.184;2022-08-01T07:01:16;0.60;;;0.20;;
49842;SDS011;55559;48.898;9.184;2022-08-01T07:03:43;0.85;;;0.20;;
49842;SDS011;55559;48.898;9.184;2022-08-01T07:06:11;0.88;;;0.20;;
49842;SDS011;55559;48.898;9.184;2022-08-01T07:08:40;0.90;;;0.28;;
49842;SDS011;55559;48.898;9.184;2022-08-01T07:11:08;1.52;;;0.30;;
49842;SDS011;55559;48.898;9.184;2022-08-01T07:13:35;7.65;;;0.30;;
49842;SDS011;55559;48.898;9.184;2022-08-01T07:16:04;1.58;;;0.30;;
49842;SDS011;55559;48.898;9.184;2022-08-01T07:18:31;0.65;;;0.20;;
49842;SDS011;55559;48.898;9.184;2022-08-01T07:20:59;0.60;;;0.20;;
49842;SDS011;55559;48.898;9.184;2022-08-01T07:23:26;2.70;;;0.30;;
49842;SDS011;55559;48.898;9.184;2022-08-01T07:25:54;1.30;;;0.30;;
49842;SDS011;55559;48.898;9.184;2022-08-01T07:28:21;4.22;;;0.30;;
49842;SDS011;55559;48.898;9.184;2022-08-01T07:30:49;1.23;;;0.30;;
49842;SDS011;55559;48.898;9.184;2022-08-01T07:33:17;0.90;;;0.20;;
49842;SDS011;55559;48.898;9.184;2022-08-01T07:35:45;2.35;;;0.30;;
49842;SDS011;55559;48.898;9.184;2022-08-01T07:38:12;3.17;;;0.25;;
49842;SDS011;55559;48.898;9.184;2022-08-01T07:40:42;1.65;;;0.22;;
49842;SDS011;55559;48.898;9.184;2022-08-01T07:43:09;1.17;;;0.20;;
49842;SDS011;55559;48.898;9.184;2022-08-01T07:45:37;9.05;;;0.28;;
49842;SDS011;55559;48.898;9.184;2022-08-01T07:48:05;3.85;;;0.22;;
49842;SDS011;55559;48.898;9.184;2022-08-01T07:50:34;3.88;;;0.30;;
49842;SDS011;55559;48.898;9.184;2022-08-01T07:53:02;4.88;;;0.30;;
49842;SDS011;55559;48.898;9.184;2022-08-01T07:55:30;1.58;;;0.30;;
49842;SDS011;55559;48.898;9.184;2022-08-01T07:57:57;6.95;;;0.30;;
49842;SDS011;55559;48.898;9.184;2022-08-01T08:00:25;7.63;;;0.35;;
49842;SDS011;55559;48.898;9.184;2022-08-01T08:02:53;3.75;;;0.30;;
49842;SDS011;55559;48.898;9.184;2022-08-01T08:05:24;1.15;;;0.30;;
49842;SDS011;55559;48.898;9.184;2022-08-01T08:07:53;2.28;;;0.40;;
49842;SDS011;55559;48.898;9.184;2022-08-01T08:10:20;3.50;;;0.25;;
49842;SDS011;55559;48.898;9.184;2022-08-01T08:12:48;6.68;;;0.30;;
49842;SDS011;55559;48.898;9.184;2022-08-01T08:15:15;1.23;;;0.28;;
49842;SDS011;55559;48.898;9.184;2022-08-01T08:17:43;1.27;;;0.20;;
49842;SDS011;55559;48.898;9.184;2022-08-01T08:20:10;0.95;;;0.20;;
49842;SDS011;55559;48.898;9.184;2022-08-01T08:22:39;0.88;;;0.20;;
49842;SDS011;55559;48.898;9.184;2022-08-01T08:25:08;3.08;;;0.30;;
49842;SDS011;55559;48.898;9.184;2022-08-01T08:27:36;1.08;;;0.30;;
49842;SDS011;55559;48.898;9.184;2022-08-01T08:30:04;2.40;;;0.30;;
49842;SDS011;55559;48.898;9.184;2022-08-01T08:32:36;4.83;;;0.70;;
49842;SDS011;55559;48.898;9.184;2022-08-01T08:35:03;1.67;;;0.30;;
49842;SDS011;55559;48.898;9.184;2022-08-01T08:37:31;4.28;;;0.30;;
49842;SDS011;55559;48.898;9.184;2022-08-01T08:39:59;0.90;;;0.30;;
49842;SDS011;55559;48.898;9.184;2022-08-01T08:42:28;1.67;;;0.22;;
49842;SDS011;55559;48.898;9.184;2022-08-01T08:45:11;5.07;;;0.45;;
49842;SDS011;55559;48.898;9.184;2022-08-01T08:47:38;2.60;;;0.30;;
49842;SDS011;55559;48.898;9.184;2022-08-01T08:50:18;2.15;;;0.30;;
49842;SDS011;55559;48.898;9.184;2022-08-01T08:52:46;5.75;;;0.30;;
49842;SDS011;55559;48.898;9.184;2022-08-01T08:55:15;5.13;;;0.30;;
49842;SDS011;55559;48.898;9.184;2022-08-01T08:57:45;5.72;;;0.40;;
49842;SDS011;55559;48.898;9.184;2022-08-01T09:00:13;3.15;;;0.30;;
49842;SDS011;55559;48.898;9.184;2022-08-01T09:02:41;0.68;;;0.38;;
49842;SDS011;55559;48.898;9.184;2022-08-01T09:05:09;5.20;;;0.50;;
49842;SDS011;55559;48.898;9.184;2022-08-01T09:07:37;1.45;;;0.80;;
49842;SDS011;55559;48.898;9.184;2022-08-01T09:10:05;4.93;;;0.80;;
49842;SDS011;55559;48.898;9.184;2022-08-01T09:12:35;2.70;;;0.70;;
49842;SDS011;55559;48.898;9.184;2022-08-01T09:15:05;2.08;;;1.00;;
49842;SDS011;55559;48.898;9.184;2022-08-01T09:17:43;9.50;;;1.35;;
49842;SDS011;55559;48.898;9.184;2022-08-01T09:20:22;7.80;;;1.38;;
49842;SDS011;55559;48.898;9.184;2022-08-01T09:22:50;10.57;;;0.93;;
49842;SDS011;55559;48.898;9.184;2022-08-01T09:25:18;4.45;;;0.90;;
49842;SDS011;55559;48.898;9.184;2022-08-01T09:27:45;2.55;;;0.85;;
49842;SDS011;55559;48.898;9.184;2022-08-01T09:30:15;3.67;;;0.70;;
49842;SDS011;55559;48.898;9.184;2022-08-01T09:32:54;1.30;;;0.65;;
49842;SDS011;55559;48.898;9.184;2022-08-01T09:35:23;3.72;;;0.85;;
49842;SDS011;55559;48.898;9.184;2022-08-01T09:37:52;3.88;;;0.65;;
49842;SDS011;55559;48.898;9.184;2022-08-01T09:40:46;2.03;;;0.68;;
49842;SDS011;55559;48.898;9.184;2022-08-01T09:43:15;4.57;;;0.80;;
49842;SDS011;55559;48.898;9.184;2022-08-01T09:45:44;2.58;;;0.73;;
49842;SDS011;55559;48.898;9.184;2022-08-01T09:48:12;1.63;;;0.68;;
49842;SDS011;55559;48.898;9.184;2022-08-01T09:50:41;1.10;;;0.50;;
49842;SDS011;55559;48.898;9.184;2022-08-01T09:53:10;3.00;;;0.50;;
49842;SDS011;55559;48.898;9.184;2022-08-01T09:55:37;2.65;;;0.50;;
49842;SDS011;55559;48.898;9.184;2022-08-01T09:58:06;1.10;;;0.40;;
49842;SDS011;55559;48.898;9.184;2022-08-01T10:00:34;0.60;;;0.40;;
49842;SDS011;55559;48.898;9.184;2022-08-01T10:05:47;2.70;;;0.40;;
49842;SDS011;55559;48.898;9.184;2022-08-01T10:08:15;4.85;;;0.95;;
49842;SDS011;55559;48.898;9.184;2022-08-01T10:10:43;3.08;;;0.40;;
49842;SDS011;55559;48.898;9.184;2022-08-01T10:13:33;6.07;;;0.30;;
49842;SDS011;55559;48.898;9.184;2022-08-01T10:16:00;1.58;;;0.30;;
49842;SDS011;55559;48.898;9.184;2022-08-01T10:18:30;2.05;;;0.40;;
49842;SDS011;55559;48.898;9.184;2022-08-01T10:20:59;1.40;;;0.30;;
49842;SDS011;55559;48.898;9.184;2022-08-01T10:23:27;1.90;;;0.30;;
49842;SDS011;55559;48.898;9.184;2022-08-01T10:26:00;4.47;;;0.30;;
49842;SDS011;55559;48.898;9.184;2022-08-01T10:28:30;1.42;;;0.38;;
49842;SDS011;55559;48.898;9.184;2022-08-01T10:30:58;1.83;;;0.30;;
49842;SDS011;55559;48.898;9.184;2022-08-01T10:33:26;5.75;;;0.40;;
49842;SDS011;55559;48.898;9.184;2022-08-01T10:35:57;2.22;;;0.25;;
49842;SDS011;55559;48.898;9.184;2022-08-01T10:38:24;3.88;;;0.30;;
49842;SDS011;55559;48.898;9.184;2022-08-01T10:40:54;1.65;;;0.40;;
49842;SDS011;55559;48.898;9.184;2022-08-01T10:43:23;2.35;;;0.38;;
49842;SDS011;55559;48.898;9.184;2022-08-01T10:45:51;1.30;;;0.40;;
49842;SDS011;55559;48.898;9.184;2022-08-01T10:48:20;3.78;;;0.30;;
49842;SDS011;55559;48.898;9.184;2022-08-01T10:50:54;4.13;;;0.40;;
49842;SDS011;55559;48.898;9.184;2022-08-01T10:53:26;1.30;;;0.38;;
49842;SDS011;55559;48.898;9.184;2022-08-01T10:55:57;0.80;;;0.30;;
49842;SDS011;55559;48.898;9.184;2022-08-01T10:58:27;0.80;;;0.28;;
49842;SDS011;55559;48.898;9.184;2022-08-01T11:03:43;1.92;;;0.30;;
49842;SDS011;55559;48.898;9.184;2022-08-01T11:06:15;1.88;;;0.30;;
49842;SDS011;55559;48.898;9.184;2022-08-01T11:08:51;0.60;;;0.30;;
49842;SDS011;55559;48.898;9.184;2022-08-01T11:11:19;6.03;;;0.30;;
49842;SDS011;55559;48.898;9.184;2022-08-01T11:14:00;1.85;;;0.30;;
49842;SDS011;55559;48.898;9.184;2022-08-01T11:16:32;0.75;;;0.30;;
49842;SDS011;55559;48.898;9.184;2022-08-01T11:19:02;0.80;;;0.22;;
49842;SDS011;55559;48.898;9.184;2022-08-01T11:24:55;3.10;;;0.30;;
49842;SDS011;55559;48.898;9.184;2022-08-01T11:27:27;3.05;;;0.30;;
49842;SDS011;55559;48.898;9.184;2022-08-01T11:32:51;1.70;;;0.30;;
49842;SDS011;55559;48.898;9.184;2022-08-01T11:35:20;1.02;;;0.30;;
49842;SDS011;55559;48.898;9.184;2022-08-01T11:37:49;2.65;;;0.30;;
49842;SDS011;55559;48.898;9.184;2022-08-01T11:40:20;1.17;;;0.30;;
49842;SDS011;55559;48.898;9.184;2022-08-01T11:42:49;2.63;;;0.30;;
49842;SDS011;55559;48.898;9.184;2022-08-01T11:45:47;3.85;;;0.30;;
49842;SDS011;55559;48.898;9.184;2022-08-01T11:48:19;3.28;;;0.40;;
49842;SDS011;55559;48.898;9.184;2022-08-01T11:50:47;0.70;;;0.30;;
49842;SDS011;55559;48.898;9.184;2022-08-01T11:53:17;0.70;;;0.30;;
49842;SDS011;55559;48.898;9.184;2022-08-01T11:55:48;2.85;;;0.25;;
49842;SDS011;55559;48.898;9.184;2022-08-01T11:58:20;0.80;;;0.20;;
49842;SDS011;55559;48.898;9.184;2022-08-01T12:00:52;2.13;;;0.40;;
49842;SDS011;55559;48.898;9.184;2022-08-01T12:03:23;1.17;;;0.35;;
49842;SDS011;55559;48.898;9.184;2022-08-01T12:05:53;0.93;;;0.30;;
49842;SDS011;55559;48.898;9.184;2022-08-01T12:08:26;0.80;;;0.30;;
49842;SDS011;55559;48.898;9.184;2022-08-01T12:10:56;0.73;;;0.20;;
49842;SDS011;55559;48.898;9.184;2022-08-01T12:13:23;1.02;;;0.40;;
49842;SDS011;55559;48.898;9.184;2022-08-01T12:15:51;1.30;;;0.32;;
49842;SDS011;55559;48.898;9.184;2022-08-01T12:18:19;0.57;;;0.30;;
49842;SDS011;55559;48.898;9.184;2022-08-01T12:20:47;2.20;;;0.28;;
49842;SDS011;55559;48.898;9.184;2022-08-01T12:23:15;5.28;;;0.40;;
49842;SDS011;55559;48.898;9.184;2022-08-01T12:25:43;0.95;;;0.32;;
49842;SDS011;55559;48.898;9.184;2022-08-01T12:28:12;5.28;;;0.40;;
49842;SDS011;55559;48.898;9.184;2022-08-01T12:30:40;6.68;;;0.50;;
49842;SDS011;55559;48.898;9.184;2022-08-01T12:33:09;4.60;;;0.30;;
49842;SDS011;55559;48.898;9.184;2022-08-01T12:35:38;0.88;;;0.30;;
49842;SDS011;55559;48.898;9.184;2022-08-01T12:38:13;0.50;;;0.20;;
49842;SDS011;55559;48.898;9.184;2022-08-01T12:40:43;1.50;;;0.32;;
49842;SDS011;55559;48.898;9.184;2022-08-01T12:43:17;2.33;;;0.45;;
49842;SDS011;55559;48.898;9.184;2022-08-01T12:45:47;1.33;;;0.32;;
49842;SDS011;55559;48.898;9.184;2022-08-01T12:48:17;0.75;;;0.30;;
49842;SDS011;55559;48.898;9.184;2022-08-01T12:50:46;2.80;;;0.30;;
49842;SDS011;55559;48.898;9.184;2022-08-01T12:53:15;1.85;;;0.30;;
49842;SDS011;55559;48.898;9.184;2022-08-01T12:55:44;2.10;;;0.40;;
49842;SDS011;55559;48.898;9.184;2022-08-01T12:58:13;0.55;;;0.30;;
49842;SDS011;55559;48.898;9.184;2022-08-01T13:00:44;0.55;;;0.30;;
49842;SDS011;55559;48.898;9.184;2022-08-01T13:03:13;1.33;;;0.40;;
49842;SDS011;55559;48.898;9.184;2022-08-01T13:05:42;2.92;;;0.32;;
49842;SDS011;55559;48.898;9.184;2022-08-01T13:08:12;3.50;;;0.30;;
49842;SDS011;55559;48.898;9.184;2022-08-01T13:10:41;0.57;;;0.30;;
49842;SDS011;55559;48.898;9.184;2022-08-01T13:13:09;1.25;;;0.30;;
49842;SDS011;55559;48.898;9.184;2022-08-01T13:15:37;2.90;;;0.25;;
49842;SDS011;55559;48.898;9.184;2022-08-01T13:18:23;2.72;;;0.30;;
49842;SDS011;55559;48.898;9.184;2022-08-01T13:21:06;0.65;;;0.22;;
49842;SDS011;55559;48.898;9.184;2022-08-01T13:23:36;4.65;;;0.40;;
49842;SDS011;55559;48.898;9.184;2022-08-01T13:26:04;1.20;;;0.30;;
49842;SDS011;55559;48.898;9.184;2022-08-01T13:28:32;1.10;;;0.30;;
49842;SDS011;55559;48.898;9.184;2022-08-01T13:31:04;2.47;;;0.10;;
49842;SDS011;55559;48.898;9.184;2022-08-01T13:33:41;0.77;;;0.30;;
49842;SDS011;55559;48.898;9.184;2022-08-01T13:36:10;2.65;;;0.20;;
49842;SDS011;55559;48.898;9.184;2022-08-01T13:38:38;1.48;;;0.20;;
49842;SDS011;55559;48.898;9.184;2022-08-01T13:41:23;2.67;;;0.30;;
49842;SDS011;55559;48.898;9.184;2022-08-01T13:43:51;1.15;;;0.20;;
49842;SDS011;55559;48.898;9.184;2022-08-01T13:46:18;0.57;;;0.20;;
49842;SDS011;55559;48.898;9.184;2022-08-01T13:48:47;4.97;;;0.32;;
49842;SDS011;55559;48.898;9.184;2022-08-01T13:51:15;3.28;;;0.30;;
49842;SDS011;55559;48.898;9.184;2022-08-01T13:53:42;0.55;;;0.30;;
49842;SDS011;55559;48.898;9.184;2022-08-01T13:56:10;2.08;;;0.20;;
49842;SDS011;55559;48.898;9.184;2022-08-01T13:58:37;0.52;;;0.30;;
49842;SDS011;55559;48.898;9.184;2022-08-01T14:01:05;1.83;;;0.30;;
49842;SDS011;55559;48.898;9.184;2022-08-01T14:03:32;2.85;;;0.32;;
49842;SDS011;55559;48.898;9.184;2022-08-01T14:06:01;2.03;;;0.28;;
49842;SDS011;55559;48.898;9.184;2022-08-01T14:08:31;2.23;;;0.20;;
49842;SDS011;55559;48.898;9.184;2022-08-01T14:10:58;0.98;;;0.30;;
49842;SDS011;55559;48.898;9.184;2022-08-01T14:13:26;3.80;;;0.30;;
49842;SDS011;55559;48.898;9.184;2022-08-01T14:15:54;3.45;;;0.35;;
49842;SDS011;55559;48.898;9.184;2022-08-01T14:18:21;0.80;;;0.30;;
49842;SDS011;55559;48.898;9.184;2022-08-01T14:20:49;4.97;;;0.35;;
49842;SDS011;55559;48.898;9.184;2022-08-01T14:23:18;5.47;;;0.20;;
49842;SDS011;55559;48.898;9.184;2022-08-01T14:25:45;3.38;;;0.20;;
49842;SDS011;55559;48.898;9.184;2022-08-01T14:28:12;0.57;;;0.30;;
49842;SDS011;55559;48.898;9.184;2022-08-01T14:30:39;1.42;;;0.30;;
49842;SDS011;55559;48.898;9.184;2022-08-01T14:33:08;4.07;;;0.20;;
49842;SDS011;55559;48.898;9.184;2022-08-01T14:35:35;1.45;;;0.20;;
49842;SDS011;55559;48.898;9.184;2022-08-01T14:38:03;2.13;;;0.40;;
49842;SDS011;55559;48.898;9.184;2022-08-01T14:40:32;3.00;;;0.30;;
49842;SDS011;55559;48.898;9.184;2022-08-01T14:42:59;0.77;;;0.20;;
49842;SDS011;55559;48.898;9.184;2022-08-01T14:45:27;1.65;;;0.30;;
49842;SDS011;55559;48.898;9.184;2022-08-01T14:47:55;1.30;;;0.38;;
49842;SDS011;55559;48.898;9.184;2022-08-01T14:50:22;1.58;;;0.30;;
49842;SDS011;55559;48.898;9.184;2022-08-01T14:52:52;3.15;;;0.40;;
49842;SDS011;55559;48.898;9.184;2022-08-01T14:55:19;2.35;;;0.30;;
49842;SDS011;55559;48.898;9.184;2022-08-01T14:57:51;2.90;;;0.40;;
49842;SDS011;55559;48.898;9.184;2022-08-01T15:00:19;4.07;;;0.30;;
49842;SDS011;55559;48.898;9.184;2022-08-01T15:02:47;0.93;;;0.30;;
49842;SDS011;55559;48.898;9.184;2022-08-01T15:05:14;3.40;;;0.20;;
49842;SDS011;55559;48.898;9.184;2022-08-01T15:07:42;0.20;;;0.10;;
49842;SDS011;55559;48.898;9.184;2022-08-01T15:10:09;2.53;;;0.20;;
49842;SDS011;55559;48.898;9.184;2022-08-01T15:12:37;0.73;;;0.20;;
49842;SDS011;55559;48.898;9.184;2022-08-01T15:15:06;0.75;;;0.30;;
49842;SDS011;55559;48.898;9.184;2022-08-01T15:17:34;0.95;;;0.22;;
49842;SDS011;55559;48.898;9.184;2022-08-01T15:20:02;3.05;;;0.40;;